sensor_id;sensor_type;location;lat;lon;timestamp;pressure;altitude;pressure_sealevel;temperature;humidity
55590;BME280;41452;42.780;23.116;2023-08-12T00:00:06;94956.44;;;15.65;96.76
55590;BME280;41452;42.780;23.116;2023-08-12T00:02:42;94941.91;;;15.45;96.89
55590;BME280;41452;42.780;23.116;2023-08-12T00:05:07;94950.53;;;15.57;96.90
55590;BME280;41452;42.780;23.116;2023-08-12T00:07:34;94952.63;;;15.55;97.01
55590;BME280;41452;42.780;23.116;2023-08-12T00:10:03;94944.16;;;15.53;97.13
55590;BME280;41452;42.780;23.116;2023-08-12T00:12:33;94920.69;;;15.40;96.46
55590;BME280;41452;42.780;23.116;2023-08-12T00:14:58;94949.69;;;15.52;96.32
55590;BME280;41452;42.780;23.116;2023-08-12T00:17:24;94947.53;;;15.49;96.37
55590;BME280;41452;42.780;23.116;2023-08-12T00:19:49;94935.03;;;15.44;96.39
55590;BME280;41452;42.780;23.116;2023-08-12T00:22:15;94946.72;;;15.48;96.03
55590;BME280;41452;42.780;23.116;2023-08-12T00:24:40;94945.63;;;15.44;96.34
55590;BME280;41452;42.780;23.116;2023-08-12T00:27:06;94941.84;;;15.40;96.56
55590;BME280;41452;42.780;23.116;2023-08-12T00:29:32;94941.31;;;15.38;96.54
55590;BME280;41452;42.780;23.116;2023-08-12T00:31:58;94941.31;;;15.38;96.67
55590;BME280;41452;42.780;23.116;2023-08-12T00:34:23;94934.91;;;15.34;96.56
55590;BME280;41452;42.780;23.116;2023-08-12T00:36:48;94937.19;;;15.25;97.00
55590;BME280;41452;42.780;23.116;2023-08-12T00:39:14;94943.25;;;15.26;97.17
55590;BME280;41452;42.780;23.116;2023-08-12T00:41:39;94939.03;;;15.25;96.95
55590;BME280;41452;42.780;23.116;2023-08-12T00:44:05;94937.41;;;15.24;96.46
55590;BME280;41452;42.780;23.116;2023-08-12T00:46:30;94928.84;;;15.16;96.70
55590;BME280;41452;42.780;23.116;2023-08-12T00:48:56;94925.75;;;15.02;96.92
55590;BME280;41452;42.780;23.116;2023-08-12T00:51:21;94929.25;;;15.08;97.26
55590;BME280;41452;42.780;23.116;2023-08-12T00:53:47;94944.09;;;15.09;97.70
55590;BME280;41452;42.780;23.116;2023-08-12T00:56:13;94927.13;;;15.05;97.66
55590;BME280;41452;42.780;23.116;2023-08-12T00:58:39;94922.63;;;15.06;97.65
55590;BME280;41452;42.780;23.116;2023-08-12T01:01:05;94920.69;;;15.01;97.53
55590;BME280;41452;42.780;23.116;2023-08-12T01:03:30;94921.28;;;15.03;97.19
55590;BME280;41452;42.780;23.116;2023-08-12T01:05:56;94920.38;;;14.97;97.30
55590;BME280;41452;42.780;23.116;2023-08-12T01:08:24;94922.16;;;14.92;97.71
55590;BME280;41452;42.780;23.116;2023-08-12T01:10:58;94921.06;;;14.88;97.82
55590;BME280;41452;42.780;23.116;2023-08-12T01:13:51;94920.59;;;14.91;97.94
55590;BME280;41452;42.780;23.116;2023-08-12T01:16:21;94917.34;;;14.89;97.86
55590;BME280;41452;42.780;23.116;2023-08-12T01:18:47;94915.53;;;14.89;97.65
55590;BME280;41452;42.780;23.116;2023-08-12T01:21:16;94894.16;;;14.74;97.97
55590;BME280;41452;42.780;23.116;2023-08-12T01:23:43;94891.13;;;14.65;97.99
55590;BME280;41452;42.780;23.116;2023-08-12T01:26:08;94907.94;;;14.76;97.86
55590;BME280;41452;42.780;23.116;2023-08-12T01:28:33;94916.09;;;14.74;98.09
55590;BME280;41452;42.780;23.116;2023-08-12T01:31:12;94908.66;;;14.71;98.44
55590;BME280;41452;42.780;23.116;2023-08-12T01:33:56;94919.31;;;14.76;98.39
55590;BME280;41452;42.780;23.116;2023-08-12T01:36:24;94916.69;;;14.76;98.21
55590;BME280;41452;42.780;23.116;2023-08-12T01:38:56;94920.44;;;14.80;98.07
55590;BME280;41452;42.780;23.116;2023-08-12T01:41:23;94911.88;;;14.73;98.42
55590;BME280;41452;42.780;23.116;2023-08-12T01:43:48;94906.19;;;14.64;98.54
55590;BME280;41452;42.780;23.116;2023-08-12T01:46:14;94908.59;;;14.66;98.28
55590;BME280;41452;42.780;23.116;2023-08-12T01:48:39;94921.13;;;14.76;98.12
55590;BME280;41452;42.780;23.116;2023-08-12T01:51:05;94908.59;;;14.66;98.21
55590;BME280;41452;42.780;23.116;2023-08-12T01:53:31;94919.72;;;14.68;98.29
55590;BME280;41452;42.780;23.116;2023-08-12T01:55:56;94921.56;;;14.68;98.54
55590;BME280;41452;42.780;23.116;2023-08-12T01:58:21;94922.28;;;14.63;98.71
55590;BME280;41452;42.780;23.116;2023-08-12T02:00:47;94927.25;;;14.59;98.73
55590;BME280;41452;42.780;23.116;2023-08-12T02:03:12;94894.28;;;14.33;98.90
55590;BME280;41452;42.780;23.116;2023-08-12T02:05:37;94925.03;;;14.56;99.12
55590;BME280;41452;42.780;23.116;2023-08-12T02:08:04;94925.03;;;14.56;99.31
55590;BME280;41452;42.780;23.116;2023-08-12T02:10:29;94921.63;;;14.56;99.41
55590;BME280;41452;42.780;23.116;2023-08-12T02:12:55;94924.50;;;14.54;99.68
55590;BME280;41452;42.780;23.116;2023-08-12T02:15:20;94918.34;;;14.49;99.87
55590;BME280;41452;42.780;23.116;2023-08-12T02:17:46;94918.25;;;14.43;100.00
55590;BME280;41452;42.780;23.116;2023-08-12T02:20:11;94889.44;;;14.25;100.00
55590;BME280;41452;42.780;23.116;2023-08-12T02:22:36;94904.38;;;14.36;100.00
55590;BME280;41452;42.780;23.116;2023-08-12T02:25:02;94919.22;;;14.37;100.00
55590;BME280;41452;42.780;23.116;2023-08-12T02:27:27;94920.25;;;14.36;100.00
55590;BME280;41452;42.780;23.116;2023-08-12T02:29:53;94916.72;;;14.31;100.00
55590;BME280;41452;42.780;23.116;2023-08-12T02:32:18;94914.88;;;14.31;100.00
55590;BME280;41452;42.780;23.116;2023-08-12T02:34:44;94922.25;;;14.29;100.00
55590;BME280;41452;42.780;23.116;2023-08-12T02:37:09;94916.31;;;14.22;100.00
55590;BME280;41452;42.780;23.116;2023-08-12T02:39:35;94925.03;;;14.22;100.00
55590;BME280;41452;42.780;23.116;2023-08-12T02:42:00;94923.19;;;14.23;100.00
55590;BME280;41452;42.780;23.116;2023-08-12T02:44:26;94919.88;;;14.16;100.00
55590;BME280;41452;42.780;23.116;2023-08-12T02:46:51;94927.34;;;14.19;100.00
55590;BME280;41452;42.780;23.116;2023-08-12T02:49:16;94926.47;;;14.13;100.00
55590;BME280;41452;42.780;23.116;2023-08-12T02:51:42;94933.50;;;14.07;100.00
55590;BME280;41452;42.780;23.116;2023-08-12T02:54:07;94914.91;;;14.02;100.00
55590;BME280;41452;42.780;23.116;2023-08-12T02:56:32;94929.66;;;13.98;100.00
55590;BME280;41452;42.780;23.116;2023-08-12T02:58:58;94930.69;;;13.97;100.00
55590;BME280;41452;42.780;23.116;2023-08-12T03:01:23;94914.09;;;13.85;100.00
55590;BME280;41452;42.780;23.116;2023-08-12T03:03:50;94934.28;;;13.91;100.00
55590;BME280;41452;42.780;23.116;2023-08-12T03:06:15;94908.28;;;13.71;100.00
55590;BME280;41452;42.780;23.116;2023-08-12T03:08:41;94930.72;;;13.85;100.00
55590;BME280;41452;42.780;23.116;2023-08-12T03:11:06;94932.88;;;13.88;100.00
55590;BME280;41452;42.780;23.116;2023-08-12T03:13:31;94933.22;;;13.92;100.00
55590;BME280;41452;42.780;23.116;2023-08-12T03:15:57;94930.25;;;13.88;100.00
55590;BME280;41452;42.780;23.116;2023-08-12T03:18:22;94932.75;;;13.95;100.00
55590;BME280;41452;42.780;23.116;2023-08-12T03:20:48;94930.56;;;13.92;100.00
55590;BME280;41452;42.780;23.116;2023-08-12T03:23:14;94933.78;;;13.94;100.00
55590;BME280;41452;42.780;23.116;2023-08-12T03:25:39;94934.34;;;13.96;100.00
55590;BME280;41452;42.780;23.116;2023-08-12T03:28:05;94929.06;;;13.96;100.00
55590;BME280;41452;42.780;23.116;2023-08-12T03:30:30;94904.16;;;13.75;100.00
55590;BME280;41452;42.780;23.116;2023-08-12T03:32:56;94932.66;;;13.90;100.00
55590;BME280;41452;42.780;23.116;2023-08-12T03:35:22;94930.25;;;13.88;100.00
55590;BME280;41452;42.780;23.116;2023-08-12T03:37:47;94927.75;;;13.82;100.00
55590;BME280;41452;42.780;23.116;2023-08-12T03:40:12;94938.06;;;13.83;100.00
55590;BME280;41452;42.780;23.116;2023-08-12T03:42:38;94932.56;;;13.85;100.00
55590;BME280;41452;42.780;23.116;2023-08-12T03:45:03;94941.75;;;13.82;100.00
55590;BME280;41452;42.780;23.116;2023-08-12T03:47:29;94917.34;;;13.75;100.00
55590;BME280;41452;42.780;23.116;2023-08-12T03:49:54;94936.00;;;13.85;100.00
55590;BME280;41452;42.780;23.116;2023-08-12T03:52:20;94937.19;;;13.78;100.00
55590;BME280;41452;42.780;23.116;2023-08-12T03:54:45;94935.94;;;13.80;100.00
55590;BME280;41452;42.780;23.116;2023-08-12T03:57:11;94936.81;;;13.86;100.00
55590;BME280;41452;42.780;23.116;2023-08-12T03:59:36;94950.44;;;13.95;100.00
55590;BME280;41452;42.780;23.116;2023-08-12T04:02:02;94942.25;;;13.96;100.00
55590;BME280;41452;42.780;23.116;2023-08-12T04:04:29;94943.88;;;13.97;100.00
55590;BME280;41452;42.780;23.116;2023-08-12T04:06:54;94945.00;;;14.01;100.00
55590;BME280;41452;42.780;23.116;2023-08-12T04:09:20;94941.88;;;14.04;100.00
55590;BME280;41452;42.780;23.116;2023-08-12T04:11:46;94920.97;;;13.86;100.00
55590;BME280;41452;42.780;23.116;2023-08-12T04:14:13;94946.16;;;14.05;100.00
55590;BME280;41452;42.780;23.116;2023-08-12T04:16:39;94915.69;;;13.86;100.00
55590;BME280;41452;42.780;23.116;2023-08-12T04:19:05;94947.03;;;14.11;100.00
55590;BME280;41452;42.780;23.116;2023-08-12T04:21:30;94944.84;;;14.08;100.00
55590;BME280;41452;42.780;23.116;2023-08-12T04:23:56;94947.81;;;14.12;100.00
55590;BME280;41452;42.780;23.116;2023-08-12T04:26:21;94949.91;;;14.10;100.00
55590;BME280;41452;42.780;23.116;2023-08-12T04:28:46;94925.50;;;14.02;100.00
55590;BME280;41452;42.780;23.116;2023-08-12T04:31:12;94938.00;;;14.07;100.00
55590;BME280;41452;42.780;23.116;2023-08-12T04:33:37;94946.31;;;14.16;100.00
55590;BME280;41452;42.780;23.116;2023-08-12T04:36:03;94940.88;;;14.22;100.00
55590;BME280;41452;42.780;23.116;2023-08-12T04:38:28;94941.66;;;14.23;100.00
55590;BME280;41452;42.780;23.116;2023-08-12T04:40:53;94942.81;;;14.27;100.00
55590;BME280;41452;42.780;23.116;2023-08-12T04:43:19;94949.22;;;14.31;100.00
55590;BME280;41452;42.780;23.116;2023-08-12T04:45:46;94950.09;;;14.37;100.00
55590;BME280;41452;42.780;23.116;2023-08-12T04:48:12;94948.59;;;14.41;100.00
55590;BME280;41452;42.780;23.116;2023-08-12T04:50:37;94950.03;;;14.49;100.00
55590;BME280;41452;42.780;23.116;2023-08-12T04:53:04;94951.97;;;14.53;100.00
55590;BME280;41452;42.780;23.116;2023-08-12T04:55:30;94952.38;;;14.62;100.00
55590;BME280;41452;42.780;23.116;2023-08-12T04:57:56;94922.81;;;14.48;100.00
55590;BME280;41452;42.780;23.116;2023-08-12T05:00:22;94950.97;;;14.71;100.00
55590;BME280;41452;42.780;23.116;2023-08-12T05:02:48;94948.44;;;14.81;100.00
55590;BME280;41452;42.780;23.116;2023-08-12T05:05:13;94948.28;;;14.88;100.00
55590;BME280;41452;42.780;23.116;2023-08-12T05:07:39;94949.16;;;14.94;100.00
55590;BME280;41452;42.780;23.116;2023-08-12T05:10:05;94953.50;;;15.00;100.00
55590;BME280;41452;42.780;23.116;2023-08-12T05:12:30;94953.66;;;15.10;100.00
55590;BME280;41452;42.780;23.116;2023-08-12T05:14:56;94951.00;;;15.10;100.00
55590;BME280;41452;42.780;23.116;2023-08-12T05:17:21;94953.72;;;15.15;100.00
55590;BME280;41452;42.780;23.116;2023-08-12T05:19:47;94952.25;;;15.25;100.00
55590;BME280;41452;42.780;23.116;2023-08-12T05:22:12;94929.34;;;15.13;100.00
55590;BME280;41452;42.780;23.116;2023-08-12T05:24:37;94950.22;;;15.32;100.00
55590;BME280;41452;42.780;23.116;2023-08-12T05:27:03;94957.69;;;15.35;100.00
55590;BME280;41452;42.780;23.116;2023-08-12T05:29:30;94961.50;;;15.44;100.00
55590;BME280;41452;42.780;23.116;2023-08-12T05:31:55;94957.88;;;15.50;98.96
55590;BME280;41452;42.780;23.116;2023-08-12T05:34:22;94959.03;;;15.59;98.85
55590;BME280;41452;42.780;23.116;2023-08-12T05:36:47;94962.81;;;15.64;100.00
55590;BME280;41452;42.780;23.116;2023-08-12T05:39:13;94957.75;;;15.62;97.31
55590;BME280;41452;42.780;23.116;2023-08-12T05:41:38;94967.88;;;15.65;97.36
55590;BME280;41452;42.780;23.116;2023-08-12T05:44:04;94955.41;;;15.66;97.82
55590;BME280;41452;42.780;23.116;2023-08-12T05:46:29;94963.81;;;15.80;99.49
55590;BME280;41452;42.780;23.116;2023-08-12T05:48:55;94937.81;;;15.76;100.00
55590;BME280;41452;42.780;23.116;2023-08-12T05:51:20;94961.03;;;15.91;97.16
55590;BME280;41452;42.780;23.116;2023-08-12T05:53:45;94960.53;;;15.94;95.67
55590;BME280;41452;42.780;23.116;2023-08-12T05:56:11;94960.03;;;15.98;94.50
55590;BME280;41452;42.780;23.116;2023-08-12T05:58:36;94939.88;;;15.96;95.56
55590;BME280;41452;42.780;23.116;2023-08-12T06:01:02;94947.50;;;16.15;96.61
55590;BME280;41452;42.780;23.116;2023-08-12T06:03:27;94952.09;;;16.25;95.45
55590;BME280;41452;42.780;23.116;2023-08-12T06:05:53;94951.34;;;16.29;97.06
55590;BME280;41452;42.780;23.116;2023-08-12T06:08:18;94946.59;;;16.31;97.01
55590;BME280;41452;42.780;23.116;2023-08-12T06:10:44;94940.53;;;16.36;95.94
55590;BME280;41452;42.780;23.116;2023-08-12T06:13:09;94947.28;;;16.49;95.08
55590;BME280;41452;42.780;23.116;2023-08-12T06:15:34;94949.41;;;16.47;92.69
55590;BME280;41452;42.780;23.116;2023-08-12T06:18:01;94930.84;;;16.47;92.04
55590;BME280;41452;42.780;23.116;2023-08-12T06:20:26;94948.72;;;16.62;93.43
55590;BME280;41452;42.780;23.116;2023-08-12T06:22:52;94934.06;;;16.54;90.50
55590;BME280;41452;42.780;23.116;2023-08-12T06:25:18;94950.63;;;16.71;91.35
55590;BME280;41452;42.780;23.116;2023-08-12T06:27:44;94956.59;;;16.84;90.03
55590;BME280;41452;42.780;23.116;2023-08-12T06:30:11;94951.63;;;16.92;92.59
55590;BME280;41452;42.780;23.116;2023-08-12T06:32:36;94957.25;;;17.01;91.00
55590;BME280;41452;42.780;23.116;2023-08-12T06:35:02;94924.53;;;16.90;89.06
55590;BME280;41452;42.780;23.116;2023-08-12T06:37:28;94925.63;;;16.95;90.26
55590;BME280;41452;42.780;23.116;2023-08-12T06:39:53;94954.72;;;17.22;90.96
55590;BME280;41452;42.780;23.116;2023-08-12T06:42:18;94946.50;;;17.28;88.19
55590;BME280;41452;42.780;23.116;2023-08-12T06:44:45;94940.97;;;17.35;89.33
55590;BME280;41452;42.780;23.116;2023-08-12T06:47:10;94939.97;;;17.41;89.99
55590;BME280;41452;42.780;23.116;2023-08-12T06:49:35;94943.16;;;17.43;86.88
55590;BME280;41452;42.780;23.116;2023-08-12T07:04:39;94934.97;;;18.44;79.14
55590;BME280;41452;42.780;23.116;2023-08-12T07:07:05;94928.56;;;18.40;82.97
55590;BME280;41452;42.780;23.116;2023-08-12T07:09:30;94934.41;;;18.42;82.67
55590;BME280;41452;42.780;23.116;2023-08-12T07:11:55;94938.94;;;18.47;82.03
55590;BME280;41452;42.780;23.116;2023-08-12T07:14:21;94935.50;;;18.41;81.51
55590;BME280;41452;42.780;23.116;2023-08-12T07:16:47;94939.47;;;18.43;81.59
55590;BME280;41452;42.780;23.116;2023-08-12T07:19:12;94942.38;;;18.42;80.99
55590;BME280;41452;42.780;23.116;2023-08-12T07:21:38;94919.53;;;18.31;82.81
55590;BME280;41452;42.780;23.116;2023-08-12T07:24:03;94930.72;;;18.48;84.21
55590;BME280;41452;42.780;23.116;2023-08-12T07:26:28;94911.81;;;18.39;83.34
55590;BME280;41452;42.780;23.116;2023-08-12T07:28:56;94917.94;;;18.45;82.76
55590;BME280;41452;42.780;23.116;2023-08-12T07:31:21;94925.41;;;18.58;85.91
55590;BME280;41452;42.780;23.116;2023-08-12T07:33:46;94901.47;;;18.53;85.68
55590;BME280;41452;42.780;23.116;2023-08-12T07:36:12;94922.75;;;18.64;81.75
55590;BME280;41452;42.780;23.116;2023-08-12T07:38:37;94909.97;;;18.66;83.12
55590;BME280;41452;42.780;23.116;2023-08-12T07:41:03;94927.28;;;18.84;82.76
55590;BME280;41452;42.780;23.116;2023-08-12T07:43:28;94915.81;;;18.83;82.15
55590;BME280;41452;42.780;23.116;2023-08-12T07:45:54;94900.94;;;18.87;81.55
55590;BME280;41452;42.780;23.116;2023-08-12T07:48:20;94904.38;;;18.83;80.69
55590;BME280;41452;42.780;23.116;2023-08-12T07:50:46;94925.66;;;19.13;81.88
55590;BME280;41452;42.780;23.116;2023-08-12T07:53:14;94855.16;;;18.70;82.39
55590;BME280;41452;42.780;23.116;2023-08-12T07:55:40;94910.19;;;19.10;82.80
55590;BME280;41452;42.780;23.116;2023-08-12T07:58:05;94918.13;;;19.31;82.92
55590;BME280;41452;42.780;23.116;2023-08-12T08:00:32;94897.13;;;19.29;80.06
55590;BME280;41452;42.780;23.116;2023-08-12T08:02:58;94914.03;;;19.54;79.10
55590;BME280;41452;42.780;23.116;2023-08-12T08:05:24;94913.50;;;19.62;77.37
55590;BME280;41452;42.780;23.116;2023-08-12T08:07:49;94918.56;;;19.64;76.79
55590;BME280;41452;42.780;23.116;2023-08-12T08:10:14;94909.72;;;19.79;78.96
55590;BME280;41452;42.780;23.116;2023-08-12T08:12:40;94898.75;;;19.85;75.46
55590;BME280;41452;42.780;23.116;2023-08-12T08:15:05;94911.44;;;20.04;78.61
55590;BME280;41452;42.780;23.116;2023-08-12T08:17:31;94904.25;;;20.04;77.07
55590;BME280;41452;42.780;23.116;2023-08-12T08:19:56;94917.50;;;20.14;74.83
55590;BME280;41452;42.780;23.116;2023-08-12T08:22:22;94908.94;;;20.23;77.67
55590;BME280;41452;42.780;23.116;2023-08-12T08:24:47;94909.41;;;20.30;74.79
55590;BME280;41452;42.780;23.116;2023-08-12T08:27:13;94912.50;;;20.47;80.59
55590;BME280;41452;42.780;23.116;2023-08-12T08:29:39;94902.81;;;20.62;73.79
55590;BME280;41452;42.780;23.116;2023-08-12T08:32:05;94903.31;;;20.64;70.21
55590;BME280;41452;42.780;23.116;2023-08-12T08:34:30;94877.22;;;20.56;74.72
55590;BME280;41452;42.780;23.116;2023-08-12T08:36:56;94886.66;;;20.77;77.14
55590;BME280;41452;42.780;23.116;2023-08-12T08:39:21;94883.41;;;20.80;71.74
55590;BME280;41452;42.780;23.116;2023-08-12T08:41:47;94908.03;;;21.01;71.33
55590;BME280;41452;42.780;23.116;2023-08-12T08:44:15;94892.72;;;21.12;69.46
55590;BME280;41452;42.780;23.116;2023-08-12T08:46:41;94895.56;;;21.21;70.39
55590;BME280;41452;42.780;23.116;2023-08-12T08:49:07;94872.34;;;21.21;70.63
55590;BME280;41452;42.780;23.116;2023-08-12T08:51:34;94882.38;;;21.30;69.03
55590;BME280;41452;42.780;23.116;2023-08-12T08:54:02;94896.91;;;21.48;70.76
55590;BME280;41452;42.780;23.116;2023-08-12T08:56:31;94900.69;;;21.65;67.44
55590;BME280;41452;42.780;23.116;2023-08-12T08:58:57;94897.50;;;21.63;64.62
55590;BME280;41452;42.780;23.116;2023-08-12T09:01:23;94889.38;;;21.74;70.69
55590;BME280;41452;42.780;23.116;2023-08-12T09:03:51;94888.38;;;21.70;72.21
55590;BME280;41452;42.780;23.116;2023-08-12T09:06:20;94882.94;;;21.75;70.80
55590;BME280;41452;42.780;23.116;2023-08-12T09:08:47;94878.19;;;21.91;65.21
55590;BME280;41452;42.780;23.116;2023-08-12T09:11:14;94879.84;;;22.06;64.39
55590;BME280;41452;42.780;23.116;2023-08-12T09:13:40;94863.75;;;22.30;66.23
55590;BME280;41452;42.780;23.116;2023-08-12T09:16:06;94864.69;;;22.39;65.54
55590;BME280;41452;42.780;23.116;2023-08-12T09:18:31;94864.31;;;22.46;70.51
55590;BME280;41452;42.780;23.116;2023-08-12T09:20:57;94804.13;;;22.24;64.18
55590;BME280;41452;42.780;23.116;2023-08-12T09:23:22;94853.88;;;22.25;63.85
55590;BME280;41452;42.780;23.116;2023-08-12T09:25:48;94846.16;;;22.43;66.65
55590;BME280;41452;42.780;23.116;2023-08-12T09:28:13;94854.16;;;22.75;64.21
55590;BME280;41452;42.780;23.116;2023-08-12T09:30:39;94852.81;;;22.92;65.41
55590;BME280;41452;42.780;23.116;2023-08-12T09:33:06;94854.00;;;23.00;64.08
55590;BME280;41452;42.780;23.116;2023-08-12T09:35:40;94854.13;;;23.08;64.13
55590;BME280;41452;42.780;23.116;2023-08-12T09:38:12;94794.28;;;22.85;60.66
55590;BME280;41452;42.780;23.116;2023-08-12T09:40:39;94805.78;;;23.00;61.33
55590;BME280;41452;42.780;23.116;2023-08-12T09:43:04;94848.69;;;23.27;60.80
55590;BME280;41452;42.780;23.116;2023-08-12T09:45:31;94847.09;;;23.40;60.31
55590;BME280;41452;42.780;23.116;2023-08-12T09:47:57;94847.88;;;23.41;56.19
55590;BME280;41452;42.780;23.116;2023-08-12T09:50:23;94846.56;;;23.52;56.53
55590;BME280;41452;42.780;23.116;2023-08-12T09:52:51;94812.44;;;23.44;56.03
55590;BME280;41452;42.780;23.116;2023-08-12T09:55:18;94838.03;;;23.64;59.43
55590;BME280;41452;42.780;23.116;2023-08-12T09:57:44;94832.66;;;23.78;56.92
55590;BME280;41452;42.780;23.116;2023-08-12T10:00:13;94835.44;;;23.86;57.61
55590;BME280;41452;42.780;23.116;2023-08-12T10:02:46;94828.06;;;23.92;55.74
55590;BME280;41452;42.780;23.116;2023-08-12T10:05:22;94825.94;;;24.03;56.93
55590;BME280;41452;42.780;23.116;2023-08-12T10:07:49;94824.78;;;24.18;55.21
55590;BME280;41452;42.780;23.116;2023-08-12T10:10:15;94806.56;;;24.06;56.38
55590;BME280;41452;42.780;23.116;2023-08-12T10:12:41;94823.25;;;24.03;54.85
55590;BME280;41452;42.780;23.116;2023-08-12T10:15:07;94819.13;;;24.19;56.33
55590;BME280;41452;42.780;23.116;2023-08-12T10:17:34;94819.78;;;24.25;55.89
55590;BME280;41452;42.780;23.116;2023-08-12T10:20:02;94813.22;;;24.31;57.37
55590;BME280;41452;42.780;23.116;2023-08-12T10:22:30;94813.16;;;24.45;54.02
55590;BME280;41452;42.780;23.116;2023-08-12T10:24:58;94813.94;;;24.45;52.44
55590;BME280;41452;42.780;23.116;2023-08-12T10:27:25;94815.38;;;24.52;53.65
55590;BME280;41452;42.780;23.116;2023-08-12T10:29:50;94807.16;;;24.71;55.00
55590;BME280;41452;42.780;23.116;2023-08-12T10:32:16;94799.91;;;24.80;54.59
55590;BME280;41452;42.780;23.116;2023-08-12T10:34:42;94782.84;;;24.76;55.34
55590;BME280;41452;42.780;23.116;2023-08-12T10:37:09;94804.38;;;24.84;55.61
55590;BME280;41452;42.780;23.116;2023-08-12T10:39:36;94786.31;;;24.76;53.49
55590;BME280;41452;42.780;23.116;2023-08-12T10:42:01;94779.97;;;24.72;53.17
55590;BME280;41452;42.780;23.116;2023-08-12T10:44:39;94791.72;;;24.85;51.97
55590;BME280;41452;42.780;23.116;2023-08-12T10:47:08;94800.97;;;25.10;54.26
55590;BME280;41452;42.780;23.116;2023-08-12T10:49:47;94795.88;;;24.91;48.80
55590;BME280;41452;42.780;23.116;2023-08-12T10:52:30;94789.63;;;25.13;53.45
55590;BME280;41452;42.780;23.116;2023-08-12T10:55:18;94783.06;;;25.37;52.11
55590;BME280;41452;42.780;23.116;2023-08-12T10:57:44;94758.72;;;25.25;49.79
55590;BME280;41452;42.780;23.116;2023-08-12T11:00:14;94790.00;;;25.29;51.71
55590;BME280;41452;42.780;23.116;2023-08-12T11:02:40;94783.00;;;25.19;49.60
55590;BME280;41452;42.780;23.116;2023-08-12T11:05:10;94784.41;;;25.17;49.76
55590;BME280;41452;42.780;23.116;2023-08-12T11:10:15;94729.88;;;25.16;52.73
55590;BME280;41452;42.780;23.116;2023-08-12T11:12:54;94773.47;;;25.79;53.46
55590;BME280;41452;42.780;23.116;2023-08-12T11:15:40;94774.44;;;25.84;55.11
55590;BME280;41452;42.780;23.116;2023-08-12T11:18:19;94768.25;;;25.92;53.65
55590;BME280;41452;42.780;23.116;2023-08-12T11:20:47;94763.66;;;25.84;48.74
55590;BME280;41452;42.780;23.116;2023-08-12T11:23:12;94733.75;;;25.68;52.85
55590;BME280;41452;42.780;23.116;2023-08-12T11:25:39;94753.06;;;25.87;50.04
55590;BME280;41452;42.780;23.116;2023-08-12T11:28:06;94766.53;;;25.96;52.10
55590;BME280;41452;42.780;23.116;2023-08-12T11:30:32;94747.22;;;25.85;51.23
55590;BME280;41452;42.780;23.116;2023-08-12T11:32:58;94762.25;;;26.04;51.42
55590;BME280;41452;42.780;23.116;2023-08-12T11:35:24;94759.88;;;26.02;52.36
55590;BME280;41452;42.780;23.116;2023-08-12T11:37:52;94768.25;;;26.01;53.13
55590;BME280;41452;42.780;23.116;2023-08-12T11:40:19;94751.16;;;25.79;55.01
55590;BME280;41452;42.780;23.116;2023-08-12T11:42:46;94759.84;;;25.85;53.97
55590;BME280;41452;42.780;23.116;2023-08-12T11:45:12;94766.34;;;25.75;54.74
55590;BME280;41452;42.780;23.116;2023-08-12T11:47:40;94745.63;;;25.58;54.71
55590;BME280;41452;42.780;23.116;2023-08-12T11:50:09;94770.63;;;25.67;55.28
55590;BME280;41452;42.780;23.116;2023-08-12T11:52:36;94772.97;;;25.60;52.79
55590;BME280;41452;42.780;23.116;2023-08-12T11:55:03;94747.50;;;25.49;55.31
55590;BME280;41452;42.780;23.116;2023-08-12T11:57:28;94764.91;;;25.51;55.46
55590;BME280;41452;42.780;23.116;2023-08-12T12:00:00;94765.13;;;25.15;53.13
55590;BME280;41452;42.780;23.116;2023-08-12T12:02:27;94768.50;;;25.29;59.79
55590;BME280;41452;42.780;23.116;2023-08-12T12:04:53;94741.69;;;25.07;51.83
55590;BME280;41452;42.780;23.116;2023-08-12T12:07:23;94758.22;;;25.31;55.11
55590;BME280;41452;42.780;23.116;2023-08-12T12:09:52;94749.41;;;25.39;54.78
55590;BME280;41452;42.780;23.116;2023-08-12T12:12:23;94757.00;;;25.37;53.99
55590;BME280;41452;42.780;23.116;2023-08-12T12:14:53;94750.66;;;25.25;56.63
55590;BME280;41452;42.780;23.116;2023-08-12T12:17:22;94754.69;;;25.13;58.38
55590;BME280;41452;42.780;23.116;2023-08-12T12:19:59;94757.06;;;25.15;54.53
55590;BME280;41452;42.780;23.116;2023-08-12T12:22:29;94749.34;;;25.22;59.82
55590;BME280;41452;42.780;23.116;2023-08-12T12:24:58;94744.63;;;25.28;61.60
55590;BME280;41452;42.780;23.116;2023-08-12T12:27:24;94742.75;;;25.28;59.42
55590;BME280;41452;42.780;23.116;2023-08-12T12:29:50;94737.84;;;25.30;57.88
55590;BME280;41452;42.780;23.116;2023-08-12T12:43:54;94729.94;;;26.21;50.16
55590;BME280;41452;42.780;23.116;2023-08-12T12:46:20;94702.56;;;25.93;49.72
55590;BME280;41452;42.780;23.116;2023-08-12T12:48:45;94718.41;;;26.03;51.95
55590;BME280;41452;42.780;23.116;2023-08-12T12:51:11;94727.75;;;25.97;50.57
55590;BME280;41452;42.780;23.116;2023-08-12T12:53:37;94689.13;;;25.75;50.25
55590;BME280;41452;42.780;23.116;2023-08-12T12:56:03;94713.50;;;26.05;52.26
55590;BME280;41452;42.780;23.116;2023-08-12T12:58:36;94709.38;;;26.08;51.29
55590;BME280;41452;42.780;23.116;2023-08-12T13:14:47;94688.84;;;26.42;46.17
55590;BME280;41452;42.780;23.116;2023-08-12T13:17:12;94708.53;;;26.33;47.55
55590;BME280;41452;42.780;23.116;2023-08-12T13:19:38;94703.81;;;26.22;46.87
55590;BME280;41452;42.780;23.116;2023-08-12T13:22:03;94688.50;;;25.87;49.33
55590;BME280;41452;42.780;23.116;2023-08-12T13:24:29;94705.91;;;25.98;50.75